Oakland, Florida
Current Conditions -  °F | °C
As of 3:53 AM on Thursday 23 Oct 2014 (Local Time) from KORL Reporting Station
Clear Clear  
Wind Chill: 66°   Ceiling: Unl
Heat Index: 66°   Visibility: 10mi
Dew Point: 56°   Wind: 5mph
Humidity: 70%   Direction: 360°N
Pressure: 29.97"   Gusts: NA
Location:  28.55°N, 81.63°W
Report Text: KORL 230753Z AUTO 36004KT 10SM CLR 19/13 A2997 RMK AO2 SLP153 T01890133
Loading
Personal Weather Stations






























Interactive Weather Map
Tropical Storm Tracking
New forecast layout! Learn more

10-Day Weather Forecast

Advertisements
Track Severe Weather on mobile